createdAt,value
2022-08-09T00:00:57.228Z,2.28
2022-08-09T00:04:03.532Z,2.38
2022-08-09T00:06:19.039Z,2.03
2022-08-09T00:08:51.872Z,2.35
2022-08-09T00:11:24.775Z,2.90
2022-08-09T00:13:55.709Z,2.40
2022-08-09T00:16:26.197Z,2.53
2022-08-09T00:19:09.392Z,2.42
2022-08-09T00:21:38.640Z,2.30
2022-08-09T00:24:27.293Z,2.38
2022-08-09T00:26:55.937Z,2.72
2022-08-09T00:29:39.570Z,2.35
2022-08-09T00:32:13.031Z,2.58
2022-08-09T00:34:53.048Z,2.40
2022-08-09T00:37:20.352Z,2.55
2022-08-09T00:40:13.730Z,2.00
2022-08-09T00:44:14.882Z,2.42
2022-08-09T00:45:22.250Z,2.25
2022-08-09T00:47:49.735Z,2.30
2022-08-09T00:50:17.249Z,2.55
2022-08-09T00:52:44.652Z,2.13
2022-08-09T00:55:32.604Z,2.28
2022-08-09T00:58:00.265Z,2.08
2022-08-09T01:00:28.271Z,2.30
2022-08-09T01:03:20.050Z,1.90
2022-08-09T01:05:57.411Z,2.30
2022-08-09T01:08:49.492Z,2.22
2022-08-09T01:11:38.945Z,2.05
2022-08-09T01:14:11.780Z,2.35
2022-08-09T01:16:47.203Z,2.00
2022-08-09T01:19:42.864Z,2.40
2022-08-09T01:22:38.105Z,2.15
2022-08-09T01:25:19.053Z,2.08
2022-08-09T01:27:51.284Z,2.40
2022-08-09T01:30:33.732Z,2.45
2022-08-09T01:33:04.505Z,2.30
2022-08-09T01:36:00.157Z,2.00
2022-08-09T01:38:30.148Z,2.65
2022-08-09T01:41:09.393Z,2.50
2022-08-09T01:43:41.985Z,2.60
2022-08-09T01:46:25.013Z,2.42
2022-08-09T01:49:00.319Z,2.75
2022-08-09T01:51:53.515Z,2.40
2022-08-09T01:54:25.052Z,2.35
2022-08-09T01:56:52.781Z,2.53
2022-08-09T01:59:21.544Z,2.55
2022-08-09T02:01:59.872Z,2.60
2022-08-09T02:04:30.197Z,2.53
2022-08-09T02:07:18.286Z,2.65
2022-08-09T02:10:04.103Z,2.65
2022-08-09T02:12:35.008Z,2.55
2022-08-09T02:15:06.232Z,2.33
2022-08-09T02:18:09.992Z,2.90
2022-08-09T02:20:32.604Z,2.30
2022-08-09T02:23:07.154Z,2.38
2022-08-09T02:25:42.174Z,3.00
2022-08-09T02:28:17.929Z,2.70
2022-08-09T02:30:51.883Z,2.60
2022-08-09T02:33:22.964Z,2.60
2022-08-09T02:36:02.633Z,2.55
2022-08-09T02:38:34.768Z,2.53
2022-08-09T02:41:10.854Z,2.70
2022-08-09T02:43:53.936Z,2.70
2022-08-09T02:46:28.468Z,3.10
2022-08-09T02:48:59.543Z,3.15
2022-08-09T02:51:28.102Z,2.90
2022-08-09T02:54:05.372Z,2.90
2022-08-09T02:56:34.132Z,3.38
2022-08-09T02:59:05.268Z,2.72
2022-08-09T03:01:58.598Z,3.13
2022-08-09T03:04:26.282Z,3.40
2022-08-09T03:06:57.263Z,2.95
2022-08-09T03:12:06.011Z,3.10
2022-08-09T03:14:36.741Z,2.80
2022-08-09T03:17:05.478Z,3.28
2022-08-09T03:19:58.593Z,3.30
2022-08-09T03:22:25.665Z,3.20
2022-08-09T03:25:06.002Z,3.03
2022-08-09T03:27:52.346Z,2.92
2022-08-09T03:30:29.268Z,3.30
2022-08-09T03:33:05.523Z,3.30
2022-08-09T03:36:13.569Z,3.58
2022-08-09T03:38:28.857Z,3.17
2022-08-09T03:40:58.273Z,3.15
2022-08-09T03:43:31.633Z,3.20
2022-08-09T03:46:20.666Z,3.42
2022-08-09T03:48:57.609Z,3.40
2022-08-09T03:51:56.962Z,3.30
2022-08-09T03:54:14.749Z,3.20
2022-08-09T03:56:42.856Z,3.33
2022-08-09T03:59:20.821Z,3.60
2022-08-09T04:01:50.488Z,3.95
2022-08-09T04:04:18.381Z,3.57
2022-08-09T04:06:49.028Z,3.38
2022-08-09T04:09:41.637Z,3.33
2022-08-09T04:12:11.773Z,3.78
2022-08-09T04:15:00.188Z,3.47
2022-08-09T04:17:29.572Z,3.28
2022-08-09T04:19:57.063Z,3.40
2022-08-09T04:22:24.497Z,3.38
2022-08-09T04:24:55.279Z,3.33
2022-08-09T04:27:23.809Z,3.60
2022-08-09T04:29:51.260Z,3.80
2022-08-09T04:32:31.468Z,3.30
2022-08-09T04:35:01.518Z,3.03
2022-08-09T04:37:45.901Z,3.30
2022-08-09T04:40:19.708Z,4.15
2022-08-09T04:43:01.822Z,3.72
2022-08-09T04:45:35.782Z,3.40
2022-08-09T04:48:12.590Z,3.10
2022-08-09T04:50:40.433Z,3.30
2022-08-09T04:53:11.489Z,3.63
2022-08-09T04:55:42.067Z,3.60
2022-08-09T04:58:31.711Z,3.13
2022-08-09T05:01:01.319Z,3.08
2022-08-09T05:03:40.034Z,3.75
2022-08-09T05:06:26.803Z,4.05
2022-08-09T05:09:00.614Z,3.92
2022-08-09T05:11:30.686Z,3.75
2022-08-09T05:14:06.036Z,4.05
2022-08-09T05:16:58.367Z,3.92
2022-08-09T05:19:25.838Z,3.15
2022-08-09T05:21:55.190Z,3.67
2022-08-09T05:24:26.258Z,3.58
2022-08-09T05:29:23.838Z,3.67
2022-08-09T05:34:31.100Z,4.00
2022-08-09T05:37:04.876Z,3.67
2022-08-09T05:39:43.716Z,3.42
2022-08-09T05:42:20.671Z,3.88
2022-08-09T05:44:51.286Z,3.97
2022-08-09T05:50:26.883Z,4.40
2022-08-09T05:52:43.605Z,3.53
2022-08-09T05:55:21.641Z,3.75
2022-08-09T05:57:56.387Z,4.05
2022-08-09T06:00:27.002Z,3.70
2022-08-09T06:03:01.923Z,4.28
2022-08-09T06:05:57.100Z,3.90
2022-08-09T06:08:19.805Z,3.95
2022-08-09T06:10:53.829Z,4.53
2022-08-09T06:13:22.057Z,3.53
2022-08-09T06:15:51.361Z,3.28
2022-08-09T06:18:24.808Z,3.92
2022-08-09T06:20:57.659Z,3.90
2022-08-09T06:23:57.581Z,3.83
2022-08-09T06:26:20.893Z,4.30
2022-08-09T06:28:59.513Z,3.58
2022-08-09T06:31:31.373Z,3.90
2022-08-09T06:34:07.342Z,3.90
2022-08-09T06:36:34.770Z,3.92
2022-08-09T06:39:02.721Z,3.80
2022-08-09T06:42:08.143Z,4.05
2022-08-09T06:44:26.507Z,4.10
2022-08-09T06:46:55.259Z,4.15
2022-08-09T06:49:44.461Z,4.25
2022-08-09T06:52:12.000Z,4.18
2022-08-09T06:54:41.644Z,4.50
2022-08-09T06:57:09.453Z,6.60
2022-08-09T07:00:48.643Z,5.25
2022-08-09T07:02:30.751Z,4.38
2022-08-09T07:04:58.686Z,5.07
2022-08-09T07:08:00.807Z,4.05
2022-08-09T07:10:29.673Z,4.18
2022-08-09T07:12:59.389Z,3.63
2022-08-09T07:16:38.544Z,3.60
2022-08-09T07:18:15.027Z,4.38
2022-08-09T07:20:44.491Z,4.22
2022-08-09T07:23:19.133Z,3.70
2022-08-09T07:25:52.544Z,4.18
2022-08-09T07:28:31.088Z,4.00
2022-08-09T07:31:04.739Z,4.30
2022-08-09T07:33:52.874Z,4.18
2022-08-09T07:36:20.401Z,3.15
2022-08-09T07:38:58.167Z,3.75
2022-08-09T07:41:27.994Z,3.88
2022-08-09T07:44:00.585Z,4.10
2022-08-09T07:46:28.120Z,3.40
2022-08-09T07:48:59.638Z,3.97
2022-08-09T07:54:15.577Z,3.72
2022-08-09T07:56:49.528Z,3.95
2022-08-09T07:59:25.226Z,3.80
2022-08-09T08:02:01.203Z,3.88
2022-08-09T08:04:31.856Z,4.32
2022-08-09T08:07:27.116Z,3.67
2022-08-09T08:09:54.915Z,3.47
2022-08-09T08:12:43.703Z,4.22
2022-08-09T08:15:17.458Z,3.42
2022-08-09T08:17:54.732Z,3.58
2022-08-09T08:20:28.931Z,3.17
2022-08-09T08:23:06.923Z,3.33
2022-08-09T08:25:49.883Z,3.55
2022-08-09T08:28:25.592Z,3.75
2022-08-09T08:31:14.395Z,3.50
2022-08-09T08:33:53.016Z,3.35
2022-08-09T08:36:29.797Z,3.08
2022-08-09T08:38:59.853Z,3.25
2022-08-09T08:41:41.728Z,3.08
2022-08-09T08:44:27.248Z,3.28
2022-08-09T08:47:02.406Z,2.97
2022-08-09T08:49:46.850Z,3.45
2022-08-09T08:52:57.387Z,3.35
2022-08-09T08:55:23.054Z,2.72
2022-08-09T08:57:56.466Z,3.10
2022-08-09T09:00:30.331Z,2.92
2022-08-09T09:03:11.999Z,3.00
2022-08-09T09:05:59.906Z,3.30
2022-08-09T09:08:38.050Z,3.70
2022-08-09T09:11:13.655Z,3.13
2022-08-09T09:13:56.526Z,3.05
2022-08-09T09:16:30.741Z,3.03
2022-08-09T09:22:04.261Z,3.00
2022-08-09T09:24:37.188Z,3.15
2022-08-09T09:27:06.906Z,3.00
2022-08-09T09:30:08.510Z,2.80
2022-08-09T09:35:10.520Z,2.55
2022-08-09T09:37:41.015Z,2.78
2022-08-09T09:40:10.181Z,2.70
2022-08-09T09:42:39.368Z,2.50
2022-08-09T09:45:14.398Z,2.58
2022-08-09T09:47:58.723Z,3.20
2022-08-09T09:50:49.697Z,2.63
2022-08-09T09:53:34.416Z,3.03
2022-08-09T09:56:20.150Z,2.92
2022-08-09T09:58:58.964Z,2.90
2022-08-09T10:01:31.179Z,2.85
2022-08-09T10:04:16.093Z,2.85
2022-08-09T10:06:51.806Z,3.00
2022-08-09T10:09:23.867Z,2.75
2022-08-09T10:12:11.919Z,2.85
2022-08-09T10:14:47.894Z,2.97
2022-08-09T10:17:50.701Z,3.50
2022-08-09T10:20:27.409Z,2.90
2022-08-09T10:23:23.960Z,2.90
2022-08-09T10:26:07.626Z,2.90
2022-08-09T10:28:40.218Z,3.78
2022-08-09T10:32:27.434Z,4.38
2022-08-09T10:34:08.704Z,3.10
2022-08-09T10:36:39.893Z,3.13
2022-08-09T10:39:15.651Z,3.17
2022-08-09T10:41:48.006Z,4.00
2022-08-09T10:47:04.120Z,4.65
2022-08-09T10:50:03.766Z,2.67
2022-08-09T10:53:00.132Z,3.92
2022-08-09T10:55:55.264Z,3.08
2022-08-09T10:58:37.639Z,2.47
2022-08-09T11:03:02.559Z,2.75
2022-08-09T11:04:20.063Z,3.72
2022-08-09T11:07:00.030Z,3.97
2022-08-09T11:09:41.286Z,3.00
2022-08-09T11:12:29.725Z,3.00
2022-08-09T11:15:24.289Z,2.80
2022-08-09T11:18:03.681Z,8.18
2022-08-09T11:20:42.227Z,6.22
2022-08-09T11:23:11.624Z,4.93
2022-08-09T11:25:47.544Z,4.85
2022-08-09T11:28:53.940Z,3.20
2022-08-09T11:31:49.466Z,3.08
2022-08-09T11:34:24.845Z,2.90
2022-08-09T11:36:53.077Z,2.95
2022-08-09T11:39:20.516Z,2.58
2022-08-09T11:41:48.878Z,3.22
2022-08-09T11:44:16.262Z,2.30
2022-08-09T11:47:00.362Z,2.88
2022-08-09T11:50:57.034Z,2.50
2022-08-09T11:53:15.940Z,2.90
2022-08-09T11:55:53.127Z,2.38
2022-08-09T11:58:32.313Z,2.55
2022-08-09T12:01:09.057Z,2.50
2022-08-09T12:03:57.447Z,3.03
2022-08-09T12:06:32.556Z,2.78
2022-08-09T12:09:19.555Z,2.45
2022-08-09T12:12:05.935Z,2.90
2022-08-09T12:15:07.526Z,2.63
2022-08-09T12:17:34.508Z,4.00
2022-08-09T12:20:16.787Z,2.60
2022-08-09T12:22:56.330Z,2.63
2022-08-09T12:25:36.668Z,3.08
2022-08-09T12:28:58.726Z,2.17
2022-08-09T12:31:02.902Z,1.88
2022-08-09T12:33:59.335Z,1.92
2022-08-09T12:36:32.217Z,2.17
2022-08-09T12:39:02.254Z,2.17
2022-08-09T12:41:39.044Z,2.22
2022-08-09T12:44:12.623Z,2.00
2022-08-09T12:46:48.972Z,1.98
2022-08-09T12:49:18.187Z,1.90
2022-08-09T12:52:01.637Z,1.95
2022-08-09T12:55:03.257Z,2.00
2022-08-09T12:57:40.179Z,1.92
2022-08-09T13:00:17.724Z,1.80
2022-08-09T13:03:00.386Z,1.80
2022-08-09T13:06:11.316Z,2.25
2022-08-09T13:08:39.850Z,2.47
2022-08-09T13:11:24.233Z,2.13
2022-08-09T13:14:41.898Z,1.90
2022-08-09T13:16:46.120Z,2.00
2022-08-09T13:20:10.010Z,1.80
2022-08-09T13:22:37.548Z,2.50
2022-08-09T13:25:14.330Z,2.30
2022-08-09T13:27:48.620Z,2.20
2022-08-09T13:30:48.997Z,2.45
2022-08-09T13:33:22.555Z,1.90
2022-08-09T13:36:38.708Z,2.20
2022-08-09T13:38:56.715Z,2.97
2022-08-09T13:41:55.912Z,2.50
2022-08-09T13:44:16.405Z,2.00
2022-08-09T13:47:26.576Z,2.35
2022-08-09T13:49:39.701Z,2.28
2022-08-09T13:52:20.878Z,2.45
2022-08-09T13:54:59.397Z,2.05
2022-08-09T13:57:36.289Z,2.20
2022-08-09T14:00:12.093Z,2.50
2022-08-09T14:02:42.596Z,2.40
2022-08-09T14:05:58.389Z,1.90
2022-08-09T14:08:17.645Z,2.63
2022-08-09T14:10:50.350Z,2.10
2022-08-09T14:14:14.681Z,2.10
2022-08-09T14:16:18.584Z,2.25
2022-08-09T14:18:50.229Z,2.50
2022-08-09T14:21:22.279Z,2.13
2022-08-09T14:23:56.641Z,2.30
2022-08-09T14:26:31.596Z,2.00
2022-08-09T14:29:02.661Z,1.90
2022-08-09T14:31:49.443Z,1.92
2022-08-09T14:34:30.991Z,1.88
2022-08-09T14:37:06.618Z,2.55
2022-08-09T14:39:47.316Z,2.53
2022-08-09T14:42:40.335Z,1.98
2022-08-09T14:46:39.805Z,2.20
2022-08-09T14:50:34.689Z,2.28
2022-08-09T14:53:12.197Z,2.30
2022-08-09T14:55:42.393Z,2.13
2022-08-09T14:58:18.298Z,1.90
2022-08-09T15:00:48.372Z,1.75
2022-08-09T15:03:20.544Z,1.95
2022-08-09T15:08:24.261Z,1.83
2022-08-09T15:11:01.222Z,1.95
2022-08-09T15:13:48.375Z,2.33
2022-08-09T15:16:17.102Z,2.17
2022-08-09T15:18:44.333Z,2.10
2022-08-09T15:21:56.203Z,1.73
2022-08-09T15:24:15.314Z,2.15
2022-08-09T15:26:46.751Z,2.42
2022-08-09T15:31:01.413Z,2.00
2022-08-09T15:32:02.143Z,2.00
2022-08-09T15:34:34.524Z,1.60
2022-08-09T15:37:23.622Z,2.28
2022-08-09T15:39:53.632Z,2.20
2022-08-09T15:42:23.147Z,2.25
2022-08-09T15:44:51.531Z,1.98
2022-08-09T15:47:22.918Z,2.05
2022-08-09T15:50:04.496Z,2.88
2022-08-09T15:52:34.771Z,2.20
2022-08-09T15:55:04.049Z,1.98
2022-08-09T15:57:35.233Z,2.15
2022-08-09T16:00:25.918Z,2.08
2022-08-09T16:02:56.087Z,1.90
2022-08-09T16:05:47.659Z,2.15
2022-08-09T16:08:30.405Z,2.00
2022-08-09T16:11:02.671Z,2.08
2022-08-09T16:14:04.156Z,2.17
2022-08-09T16:16:28.265Z,2.03
2022-08-09T16:18:56.222Z,2.05
2022-08-09T16:21:25.576Z,2.70
2022-08-09T16:23:58.276Z,2.40
2022-08-09T16:26:34.610Z,2.25
2022-08-09T16:29:11.055Z,2.40
2022-08-09T16:32:18.468Z,1.83
2022-08-09T16:34:54.568Z,2.30
2022-08-09T16:37:54.651Z,2.40
2022-08-09T16:40:12.163Z,1.75
2022-08-09T16:42:45.466Z,2.53
2022-08-09T16:45:19.842Z,2.20
2022-08-09T16:48:42.029Z,1.80
2022-08-09T16:50:38.421Z,1.73
2022-08-09T16:53:08.738Z,2.40
2022-08-09T16:56:01.530Z,2.00
2022-08-09T16:58:24.071Z,1.90
2022-08-09T17:00:51.445Z,2.10
2022-08-09T17:03:21.875Z,2.20
2022-08-09T17:06:07.111Z,1.80
2022-08-09T17:08:58.881Z,2.35
2022-08-09T17:11:39.998Z,2.13
2022-08-09T17:14:26.214Z,1.83
2022-08-09T17:16:59.976Z,1.92
2022-08-09T17:19:46.386Z,1.73
2022-08-09T17:22:24.990Z,2.35
2022-08-09T17:25:03.495Z,1.77
2022-08-09T17:27:33.906Z,2.17
2022-08-09T17:30:04.901Z,2.15
2022-08-09T17:32:38.007Z,2.13
2022-08-09T17:35:11.892Z,1.75
2022-08-09T17:38:02.643Z,1.60
2022-08-09T17:40:33.243Z,1.95
2022-08-09T17:43:33.154Z,1.88
2022-08-09T17:46:02.969Z,2.42
2022-08-09T17:48:39.003Z,3.67
2022-08-09T17:51:17.456Z,1.80
2022-08-09T17:53:52.815Z,2.05
2022-08-09T17:56:29.096Z,1.58
2022-08-09T17:59:03.399Z,2.05
2022-08-09T18:02:03.865Z,1.95
2022-08-09T18:04:26.482Z,2.15
2022-08-09T18:06:55.004Z,2.17
2022-08-09T18:09:40.560Z,1.50
2022-08-09T18:12:19.761Z,2.10
2022-08-09T18:14:54.531Z,1.73
2022-08-09T18:17:27.687Z,2.08
2022-08-09T18:20:55.678Z,2.30
2022-08-09T18:23:05.572Z,2.55
2022-08-09T18:25:50.783Z,2.10
2022-08-09T18:30:35.655Z,2.10
2022-08-09T18:31:10.680Z,2.10
2022-08-09T18:33:38.062Z,2.17
2022-08-09T18:36:14.189Z,2.00
2022-08-09T18:38:55.132Z,2.33
2022-08-09T18:41:27.958Z,2.22
2022-08-09T18:43:55.391Z,2.92
2022-08-09T18:46:51.425Z,2.90
2022-08-09T18:49:10.004Z,2.80
2022-08-09T18:51:38.723Z,2.35
2022-08-09T18:54:28.437Z,2.97
2022-08-09T18:56:57.270Z,3.03
2022-08-09T18:59:48.796Z,3.03
2022-08-09T19:02:18.106Z,2.63
2022-08-09T19:04:47.520Z,3.40
2022-08-09T19:07:16.682Z,3.38
2022-08-09T19:10:15.447Z,4.13
2022-08-09T19:12:36.943Z,4.30
2022-08-09T19:15:07.039Z,3.90
2022-08-09T19:17:47.578Z,4.85
2022-08-09T19:20:22.749Z,2.50
2022-08-09T19:22:50.485Z,2.60
2022-08-09T19:25:41.826Z,2.50
2022-08-09T19:28:13.321Z,2.58
2022-08-09T19:30:44.353Z,2.95
2022-08-09T19:33:19.537Z,2.55
2022-08-09T19:35:58.442Z,2.92
2022-08-09T19:38:27.539Z,2.20
2022-08-09T19:40:57.625Z,2.63
2022-08-09T19:43:57.884Z,2.78
2022-08-09T19:46:34.169Z,2.63
2022-08-09T19:50:08.754Z,2.58
2022-08-09T19:54:29.763Z,2.47
2022-08-09T19:56:58.672Z,2.35
2022-08-09T19:59:39.992Z,2.67
2022-08-09T20:05:11.782Z,2.47
2022-08-09T20:07:59.278Z,2.80
2022-08-09T20:10:34.663Z,2.60
2022-08-09T20:13:05.856Z,2.80
2022-08-09T20:19:54.849Z,3.75
2022-08-09T20:24:08.153Z,4.20
2022-08-09T20:30:27.862Z,2.55
2022-08-09T20:33:28.431Z,2.33
2022-08-09T20:36:31.293Z,2.55
2022-08-09T20:42:53.361Z,2.33
2022-08-09T20:46:33.797Z,2.50
2022-08-09T20:49:53.852Z,2.28
2022-08-09T21:00:22.820Z,2.60
2022-08-09T21:03:19.592Z,2.85
2022-08-09T21:06:06.620Z,3.13
2022-08-09T21:09:13.627Z,2.88
2022-08-09T21:16:04.879Z,2.90
2022-08-09T21:20:17.158Z,2.72
2022-08-09T21:22:52.583Z,2.55
2022-08-09T21:26:17.902Z,2.40
2022-08-09T21:29:16.783Z,2.42
2022-08-09T21:32:33.168Z,2.30
2022-08-09T21:35:51.140Z,2.50
2022-08-09T21:39:58.354Z,2.42
2022-08-09T21:46:06.080Z,2.92
2022-08-09T21:58:53.622Z,2.85
2022-08-09T22:02:00.697Z,2.28
2022-08-09T22:05:35.559Z,2.40
2022-08-09T22:09:27.256Z,2.40
2022-08-09T22:15:34.857Z,2.25
2022-08-09T22:18:54.390Z,2.50
2022-08-09T22:22:02.001Z,2.53
2022-08-09T22:24:53.522Z,2.55
2022-08-09T22:27:45.194Z,1.90
2022-08-09T22:34:14.551Z,2.10
2022-08-09T22:37:22.281Z,2.05
2022-08-09T22:48:05.001Z,2.00
2022-08-09T22:48:35.189Z,1.90
2022-08-09T22:54:27.210Z,2.97
2022-08-09T22:57:38.604Z,2.28
2022-08-09T23:00:32.166Z,2.28
2022-08-09T23:04:03.623Z,2.53
2022-08-09T23:08:21.797Z,2.45
2022-08-09T23:11:35.179Z,2.42
2022-08-09T23:14:37.246Z,2.30
2022-08-09T23:17:36.592Z,2.25
2022-08-09T23:20:36.974Z,2.75
2022-08-09T23:23:09.366Z,2.08
2022-08-09T23:25:59.970Z,2.22
2022-08-09T23:28:58.708Z,2.20
2022-08-09T23:31:57.954Z,2.33
2022-08-09T23:34:44.288Z,1.90
2022-08-09T23:40:45.873Z,2.35
2022-08-09T23:44:41.548Z,2.10
2022-08-09T23:47:32.539Z,2.35
2022-08-09T23:50:49.238Z,2.50
2022-08-09T23:54:17.441Z,2.40
2022-08-09T23:57:16.419Z,2.58
